Terminal Aerodrome Forecast
Issued by NWS

Home | Current Version | Previous Version | Text Only | Print | Product List | Glossary On
Versions: 1 2 3 4 5 6 7 8 9 10 11 12 13
000
FTUS41 KBOX 211120
TAFBAF
TAF
KBAF 211120Z 2112/2212 VRB04KT P6SM FEW200
     FM220500 20004KT P6SM VCSH OVC090
     FM220900 VRB03KT P6SM OVC035=

USA.gov is the U.S. government's official web portal to all federal, state and local government web resources and services.